Harrodsburg, KY (40330)

3:32 PM EST on February 01, 2015 (GMT -0500)
Berwick Drive | Change Station
CLOSE
Current Station
Personal Weather Station
Location: Danville, KY
Elevation: 980 ft
Nearby Weather Stations
Active Advisory: Special Statement

Elev 980 ft 37.66 °N, 84.79 °W | Updated 2 minutes ago

Rain
Rain
44.8 °F
Feels Like 42 °F
N
5.0
Wind Variable Wind from WSW
Gusts 8.0 mph

Today
High -- | Low -- °F
--% Chance of Precip.
Yesterday
High -- | Low -- °F
Precip. -- in
7:43 AM 6:02 PM
Waxing Gibbous, 96% visible
Pressure 29.74 in
Visibility 7.0 miles
Clouds Scattered Clouds 1300 ft
Mostly Cloudy 1800 ft
Overcast 5000 ft
Windchill 42 °F
Dew Point 43 °F
Humidity 92%
Rainfall 0.20 in
Snow Depth Not available.
UV 1 out of 12
Pollen .10 out of 12
Air Quality Not available.
Flu Activity Not available.
METAR KDVK 012015Z AUTO 20012G17KT 7SM -RA SCT013 BKN018 OVC050 07/06 A2974 RMK AO2

More Conditions Fewer Conditions

Pressure 29.74 in
Visibility 7.0 miles
Clouds Scattered Clouds 1300 ft
Mostly Cloudy 1800 ft
Overcast 5000 ft
Windchill 42 °F
Dew Point 43 °F
Humidity 92%
Rainfall 0.20 in
Snow Depth Not available.
UV 1 out of 12
Pollen .10 out of 12
Air Quality Not available.
Flu Activity Not available.
METAR KDVK 012015Z AUTO 20012G17KT 7SM -RA SCT013 BKN018 OVC050 07/06 A2974 RMK AO2

More Conditions Fewer Conditions

10-Day Weather Forecast

Almanac

Astronomy

Feb. 01, 2015 Rise Set
Actual Time
Civil Twilight
Nautical Twilight
Astronomical Twilight
Moon
Length of Visible Light
Length of Day
Tomorrow will be .
, % of the Moon is Illuminated

Today's Extremes

State Highs State Lows

Community

WunderPhotos

Upload Photos

1,792,511 photos uploaded!

WunderBlogs® & News

Nearby

Air Quality

  Air Quality AQ Index Pollutant
Not available.

Snow Depth

Station Depth Elevation

Earthquake Activity

City Distance Mag. Time & Date
Minimum magnitude displayed is 2.5.

Coastal Water Temperatures

Place Temperature

Nearby Weather Stations